RYR674 LOWW-LYNI
Flight info
| Callsign | RYR674 |
|---|---|
| Flight time | 0h 58m |
| Altitude | 31000 |
| Route | ARSIN DCT NALOX DCT NIKAB DCT BABIT DCT NEVAK DCT SOSEK |
| Aircraft | A320/M-SDE3FGHIRWY/LB1 |
Departure
| Time | 2026-04-20 22:15 |
|---|---|
| Airport | Vienna International Airport (LOWW) |
Arrival
| Time | 2026-04-20 23:14 |
|---|---|
| Airport | Niš Constantine the Great Airport (LYNI) |
| Time | Latitude | Longitude | Altitude | Speed | Heading |
|---|---|---|---|---|---|
| 2026-04-20 22:06 | 48.11953 | 16.55585 | 610 ft | 0 kts | 64° |
| 2026-04-20 22:07 | 48.11949 | 16.55574 | 610 ft | 3 kts | 66° |
| 2026-04-20 22:08 | 48.11942 | 16.55546 | 622 ft | 3 kts | 81° |
| 2026-04-20 22:08 | 48.11941 | 16.55516 | 619 ft | 3 kts | 100° |
| 2026-04-20 22:08 | 48.11945 | 16.55492 | 624 ft | 1 kts | 114° |
| 2026-04-20 22:08 | 48.11948 | 16.55484 | 626 ft | 0 kts | 114° |
| 2026-04-20 22:10 | 48.11947 | 16.55485 | 624 ft | 1 kts | 114° |
| 2026-04-20 22:10 | 48.11942 | 16.55484 | 622 ft | 1 kts | 170° |
| 2026-04-20 22:11 | 48.11896 | 16.55450 | 610 ft | 11 kts | 204° |
| 2026-04-20 22:11 | 48.11817 | 16.55434 | 617 ft | 12 kts | 158° |
| 2026-04-20 22:11 | 48.11770 | 16.55548 | 614 ft | 15 kts | 117° |
| 2026-04-20 22:11 | 48.11708 | 16.55743 | 616 ft | 24 kts | 115° |
| 2026-04-20 22:12 | 48.11659 | 16.55895 | 622 ft | 25 kts | 115° |
| 2026-04-20 22:12 | 48.11580 | 16.56140 | 616 ft | 27 kts | 116° |
| 2026-04-20 22:12 | 48.11493 | 16.56404 | 612 ft | 29 kts | 116° |
| 2026-04-20 22:12 | 48.11402 | 16.56684 | 609 ft | 30 kts | 116° |
| 2026-04-20 22:13 | 48.11307 | 16.56975 | 614 ft | 32 kts | 116° |
| 2026-04-20 22:13 | 48.11225 | 16.57221 | 615 ft | 17 kts | 122° |
| 2026-04-20 22:13 | 48.11154 | 16.57209 | 612 ft | 9 kts | 210° |
| 2026-04-20 22:13 | 48.11095 | 16.57163 | 620 ft | 11 kts | 208° |
| 2026-04-20 22:14 | 48.11064 | 16.57075 | 609 ft | 11 kts | 285° |
| 2026-04-20 22:14 | 48.11126 | 16.56885 | 615 ft | 46 kts | 296° |
| 2026-04-20 22:14 | 48.11361 | 16.56161 | 616 ft | 106 kts | 296° |
| 2026-04-20 22:14 | 48.11758 | 16.54945 | 614 ft | 153 kts | 296° |
| 2026-04-20 22:15 | 48.12249 | 16.53423 | 1082 ft | 158 kts | 297° |
| 2026-04-20 22:15 | 48.12393 | 16.51849 | 1816 ft | 163 kts | 256° |
| 2026-04-20 22:15 | 48.11586 | 16.50502 | 2170 ft | 197 kts | 208° |
| 2026-04-20 22:15 | 48.10172 | 16.49967 | 2627 ft | 217 kts | 197° |
| 2026-04-20 22:16 | 48.08662 | 16.49478 | 3288 ft | 222 kts | 198° |
| 2026-04-20 22:16 | 48.07162 | 16.48947 | 4112 ft | 221 kts | 199° |
| 2026-04-20 22:16 | 48.05685 | 16.48322 | 4898 ft | 220 kts | 210° |
| 2026-04-20 22:16 | 48.04303 | 16.47171 | 5365 ft | 238 kts | 217° |
| 2026-04-20 22:17 | 48.02834 | 16.45778 | 5837 ft | 259 kts | 218° |
| 2026-04-20 22:17 | 48.01265 | 16.44297 | 6628 ft | 268 kts | 212° |
| 2026-04-20 22:17 | 47.99368 | 16.43501 | 7485 ft | 282 kts | 187° |
| 2026-04-20 22:17 | 47.97467 | 16.43909 | 8309 ft | 295 kts | 163° |
| 2026-04-20 22:18 | 47.95704 | 16.45557 | 9155 ft | 304 kts | 142° |
| 2026-04-20 22:18 | 47.94090 | 16.47618 | 10007 ft | 307 kts | 142° |
| 2026-04-20 22:18 | 47.92580 | 16.49572 | 10436 ft | 323 kts | 142° |
| 2026-04-20 22:18 | 47.90728 | 16.51970 | 10670 ft | 347 kts | 142° |
| 2026-04-20 22:19 | 47.88870 | 16.54370 | 11162 ft | 358 kts | 142° |
| 2026-04-20 22:19 | 47.86975 | 16.56808 | 11840 ft | 362 kts | 142° |
| 2026-04-20 22:19 | 47.85054 | 16.59271 | 12530 ft | 366 kts | 143° |
| 2026-04-20 22:19 | 47.83113 | 16.61756 | 13214 ft | 371 kts | 143° |
| 2026-04-20 22:20 | 47.81115 | 16.64309 | 13885 ft | 376 kts | 143° |
| 2026-04-20 22:20 | 47.79123 | 16.66848 | 14462 ft | 380 kts | 143° |
| 2026-04-20 22:20 | 47.77103 | 16.69417 | 15087 ft | 383 kts | 143° |
| 2026-04-20 22:20 | 47.75083 | 16.71981 | 15690 ft | 386 kts | 143° |
| 2026-04-20 22:21 | 47.73048 | 16.74564 | 16284 ft | 389 kts | 143° |
| 2026-04-20 22:21 | 47.70951 | 16.77225 | 16913 ft | 393 kts | 143° |
| 2026-04-20 22:21 | 47.68865 | 16.79871 | 17515 ft | 396 kts | 143° |
| 2026-04-20 22:21 | 47.66762 | 16.82533 | 18132 ft | 399 kts | 143° |
| 2026-04-20 22:22 | 47.64640 | 16.85217 | 18697 ft | 403 kts | 143° |
| 2026-04-20 22:22 | 47.62502 | 16.87922 | 19224 ft | 407 kts | 143° |
| 2026-04-20 22:22 | 47.60336 | 16.90664 | 19760 ft | 411 kts | 143° |
| 2026-04-20 22:22 | 47.58153 | 16.93424 | 20297 ft | 415 kts | 144° |
| 2026-04-20 22:23 | 47.55949 | 16.96202 | 20835 ft | 418 kts | 144° |
| 2026-04-20 22:23 | 47.53723 | 16.99000 | 21379 ft | 421 kts | 144° |
| 2026-04-20 22:23 | 47.51479 | 17.01820 | 21912 ft | 425 kts | 144° |
| 2026-04-20 22:23 | 47.49212 | 17.04663 | 22405 ft | 429 kts | 144° |
| 2026-04-20 22:24 | 47.46930 | 17.07518 | 22892 ft | 432 kts | 144° |
| 2026-04-20 22:24 | 47.44621 | 17.10399 | 23380 ft | 436 kts | 144° |
| 2026-04-20 22:24 | 47.42299 | 17.13294 | 23808 ft | 439 kts | 144° |
| 2026-04-20 22:24 | 47.39953 | 17.16219 | 24194 ft | 443 kts | 144° |
| 2026-04-20 22:25 | 47.37595 | 17.19162 | 24584 ft | 446 kts | 144° |
| 2026-04-20 22:25 | 47.35214 | 17.22136 | 24957 ft | 449 kts | 144° |
| 2026-04-20 22:25 | 47.32816 | 17.25123 | 25266 ft | 454 kts | 144° |
| 2026-04-20 22:25 | 47.30366 | 17.28168 | 25617 ft | 457 kts | 144° |
| 2026-04-20 22:26 | 47.27954 | 17.31162 | 25970 ft | 460 kts | 144° |
| 2026-04-20 22:26 | 47.25468 | 17.34247 | 26330 ft | 464 kts | 144° |
| 2026-04-20 22:26 | 47.22991 | 17.37316 | 26681 ft | 467 kts | 144° |
| 2026-04-20 22:27 | 47.17986 | 17.43501 | 27364 ft | 473 kts | 145° |
| 2026-04-20 22:27 | 47.15452 | 17.46625 | 27708 ft | 476 kts | 145° |
| 2026-04-20 22:27 | 47.12907 | 17.49762 | 28043 ft | 480 kts | 145° |
| 2026-04-20 22:27 | 47.10343 | 17.52918 | 28376 ft | 483 kts | 145° |
| 2026-04-20 22:28 | 47.07764 | 17.56087 | 28745 ft | 484 kts | 144° |
| 2026-04-20 22:28 | 47.05170 | 17.59270 | 28989 ft | 489 kts | 145° |
| 2026-04-20 22:28 | 47.02542 | 17.62487 | 29259 ft | 493 kts | 145° |
| 2026-04-20 22:28 | 46.99902 | 17.65713 | 29556 ft | 497 kts | 145° |
| 2026-04-20 22:29 | 46.97241 | 17.68966 | 29868 ft | 500 kts | 145° |
| 2026-04-20 22:29 | 46.94568 | 17.72233 | 30272 ft | 500 kts | 145° |
| 2026-04-20 22:29 | 46.91902 | 17.75488 | 30659 ft | 499 kts | 145° |
| 2026-04-20 22:29 | 46.89234 | 17.78744 | 30968 ft | 500 kts | 145° |
| 2026-04-20 22:30 | 46.83930 | 17.85205 | 31058 ft | 491 kts | 145° |
| 2026-04-20 22:30 | 46.78648 | 17.91601 | 31054 ft | 492 kts | 145° |
| 2026-04-20 22:31 | 46.73360 | 17.97971 | 31054 ft | 494 kts | 145° |
| 2026-04-20 22:31 | 46.68059 | 18.04365 | 31053 ft | 494 kts | 145° |
| 2026-04-20 22:32 | 46.62757 | 18.10739 | 31057 ft | 494 kts | 145° |
| 2026-04-20 22:32 | 46.57466 | 18.17088 | 31073 ft | 493 kts | 145° |
| 2026-04-20 22:33 | 46.52179 | 18.23417 | 31027 ft | 493 kts | 145° |
| 2026-04-20 22:33 | 46.46873 | 18.29733 | 31023 ft | 494 kts | 145° |
| 2026-04-20 22:34 | 46.41545 | 18.36076 | 31023 ft | 496 kts | 145° |
| 2026-04-20 22:34 | 46.36211 | 18.42402 | 31054 ft | 495 kts | 145° |
| 2026-04-20 22:35 | 46.30881 | 18.48710 | 31058 ft | 494 kts | 145° |
| 2026-04-20 22:35 | 46.25562 | 18.54997 | 31019 ft | 494 kts | 145° |
| 2026-04-20 22:36 | 46.20190 | 18.61318 | 31019 ft | 496 kts | 145° |
| 2026-04-20 22:36 | 46.14833 | 18.67605 | 31021 ft | 496 kts | 144° |
| 2026-04-20 22:37 | 46.09473 | 18.73887 | 31038 ft | 496 kts | 144° |
| 2026-04-20 22:37 | 46.04115 | 18.80145 | 31043 ft | 496 kts | 145° |
| 2026-04-20 22:38 | 45.98754 | 18.86392 | 31014 ft | 497 kts | 144° |
| 2026-04-20 22:38 | 45.93375 | 18.92638 | 31016 ft | 497 kts | 145° |
| 2026-04-20 22:39 | 45.87841 | 18.98564 | 31033 ft | 495 kts | 149° |
| 2026-04-20 22:39 | 45.82163 | 19.04125 | 31043 ft | 494 kts | 150° |
| 2026-04-20 22:40 | 45.77401 | 19.08747 | 31043 ft | 494 kts | 149° |
| 2026-04-20 22:40 | 45.71742 | 19.14365 | 31020 ft | 495 kts | 149° |
| 2026-04-20 22:41 | 45.66113 | 19.20029 | 31048 ft | 495 kts | 149° |
| 2026-04-20 22:41 | 45.60490 | 19.25680 | 31056 ft | 494 kts | 149° |
| 2026-04-20 22:42 | 45.54867 | 19.31285 | 31059 ft | 493 kts | 149° |
| 2026-04-20 22:42 | 45.49236 | 19.36866 | 31019 ft | 493 kts | 149° |
| 2026-04-20 22:43 | 45.43592 | 19.42447 | 31025 ft | 494 kts | 149° |
| 2026-04-20 22:43 | 45.37949 | 19.48004 | 31029 ft | 495 kts | 149° |
| 2026-04-20 22:44 | 45.32240 | 19.53627 | 31034 ft | 496 kts | 149° |
| 2026-04-20 22:44 | 45.26564 | 19.59201 | 31038 ft | 496 kts | 149° |
| 2026-04-20 22:45 | 45.20886 | 19.64758 | 31025 ft | 496 kts | 149° |
| 2026-04-20 22:45 | 45.15169 | 19.70355 | 31052 ft | 496 kts | 149° |
| 2026-04-20 22:46 | 45.09501 | 19.75883 | 31052 ft | 495 kts | 149° |
| 2026-04-20 22:46 | 45.03833 | 19.81390 | 31045 ft | 494 kts | 149° |
| 2026-04-20 22:47 | 44.98171 | 19.86884 | 31048 ft | 493 kts | 149° |
| 2026-04-20 22:47 | 44.92518 | 19.92356 | 31060 ft | 492 kts | 149° |
| 2026-04-20 22:48 | 44.86886 | 19.97801 | 31057 ft | 490 kts | 149° |
| 2026-04-20 22:48 | 44.81256 | 20.03214 | 31071 ft | 489 kts | 149° |
| 2026-04-20 22:49 | 44.75627 | 20.08620 | 31030 ft | 489 kts | 149° |
| 2026-04-20 22:49 | 44.70014 | 20.14013 | 31064 ft | 489 kts | 149° |
| 2026-04-20 22:50 | 44.64391 | 20.19400 | 31074 ft | 488 kts | 149° |
| 2026-04-20 22:50 | 44.58777 | 20.24750 | 31075 ft | 488 kts | 149° |
| 2026-04-20 22:51 | 44.53167 | 20.30084 | 31047 ft | 487 kts | 149° |
| 2026-04-20 22:51 | 44.47518 | 20.35449 | 31065 ft | 486 kts | 149° |
| 2026-04-20 22:52 | 44.41958 | 20.40716 | 31072 ft | 485 kts | 149° |
| 2026-04-20 22:52 | 44.36337 | 20.46040 | 31066 ft | 484 kts | 149° |
| 2026-04-20 22:53 | 44.30756 | 20.51294 | 31063 ft | 484 kts | 150° |
| 2026-04-20 22:53 | 44.25165 | 20.56537 | 31046 ft | 484 kts | 149° |
| 2026-04-20 22:54 | 44.19571 | 20.61732 | 31063 ft | 482 kts | 151° |
| 2026-04-20 22:54 | 44.13838 | 20.66559 | 31066 ft | 480 kts | 154° |
| 2026-04-20 22:55 | 44.08033 | 20.71157 | 31068 ft | 480 kts | 154° |
| 2026-04-20 22:55 | 44.02250 | 20.75793 | 31034 ft | 480 kts | 153° |
| 2026-04-20 22:56 | 43.96495 | 20.80502 | 31058 ft | 479 kts | 153° |
| 2026-04-20 22:56 | 43.90743 | 20.85221 | 31022 ft | 482 kts | 153° |
| 2026-04-20 22:57 | 43.84943 | 20.89947 | 31020 ft | 485 kts | 153° |
| 2026-04-20 22:57 | 43.79151 | 20.94800 | 31009 ft | 489 kts | 146° |
| 2026-04-20 22:58 | 43.74243 | 21.01397 | 31030 ft | 495 kts | 133° |
| 2026-04-20 22:58 | 43.69619 | 21.08518 | 31043 ft | 495 kts | 134° |
| 2026-04-20 22:59 | 43.65007 | 21.15558 | 30802 ft | 493 kts | 134° |
| 2026-04-20 22:59 | 43.62692 | 21.19083 | 29832 ft | 497 kts | 134° |
| 2026-04-20 22:59 | 43.60374 | 21.22614 | 29053 ft | 494 kts | 134° |
| 2026-04-20 23:00 | 43.58079 | 21.26111 | 28508 ft | 486 kts | 134° |
| 2026-04-20 23:00 | 43.55951 | 21.29651 | 28354 ft | 473 kts | 124° |
| 2026-04-20 23:00 | 43.54469 | 21.33614 | 28183 ft | 460 kts | 109° |
| 2026-04-20 23:00 | 43.53726 | 21.37814 | 28064 ft | 445 kts | 94° |
| 2026-04-20 23:01 | 43.53475 | 21.42003 | 27937 ft | 433 kts | 92° |
| 2026-04-20 23:01 | 43.53247 | 21.46105 | 27705 ft | 426 kts | 92° |
| 2026-04-20 23:01 | 43.52995 | 21.50157 | 27368 ft | 423 kts | 97° |
| 2026-04-20 23:01 | 43.52302 | 21.54060 | 26859 ft | 417 kts | 111° |
| 2026-04-20 23:02 | 43.51177 | 21.57721 | 26145 ft | 412 kts | 115° |
| 2026-04-20 23:02 | 43.50074 | 21.61322 | 25458 ft | 407 kts | 109° |
| 2026-04-20 23:02 | 43.49343 | 21.65080 | 24791 ft | 403 kts | 103° |
| 2026-04-20 23:02 | 43.48707 | 21.68807 | 24119 ft | 398 kts | 104° |
| 2026-04-20 23:03 | 43.48082 | 21.72496 | 23433 ft | 393 kts | 104° |
| 2026-04-20 23:03 | 43.47466 | 21.76144 | 22662 ft | 389 kts | 103° |
| 2026-04-20 23:03 | 43.46850 | 21.79790 | 21881 ft | 384 kts | 103° |
| 2026-04-20 23:03 | 43.46238 | 21.83393 | 20838 ft | 388 kts | 103° |
| 2026-04-20 23:04 | 43.45620 | 21.87009 | 19832 ft | 390 kts | 103° |
| 2026-04-20 23:04 | 43.44997 | 21.90650 | 18850 ft | 391 kts | 103° |
| 2026-04-20 23:04 | 43.44374 | 21.94289 | 17840 ft | 391 kts | 103° |
| 2026-04-20 23:04 | 43.43753 | 21.97915 | 16771 ft | 389 kts | 103° |
| 2026-04-20 23:05 | 43.43137 | 22.01522 | 15737 ft | 386 kts | 103° |
| 2026-04-20 23:05 | 43.42523 | 22.05099 | 14737 ft | 383 kts | 103° |
| 2026-04-20 23:05 | 43.41909 | 22.08652 | 13765 ft | 380 kts | 103° |
| 2026-04-20 23:05 | 43.41297 | 22.12172 | 12684 ft | 377 kts | 103° |
| 2026-04-20 23:06 | 43.40689 | 22.15651 | 11654 ft | 372 kts | 104° |
| 2026-04-20 23:06 | 43.40088 | 22.19097 | 10654 ft | 369 kts | 104° |
| 2026-04-20 23:06 | 43.39493 | 22.22514 | 9642 ft | 365 kts | 105° |
| 2026-04-20 23:06 | 43.38554 | 22.25707 | 8396 ft | 361 kts | 127° |
| 2026-04-20 23:07 | 43.36754 | 22.28020 | 7121 ft | 353 kts | 154° |
| 2026-04-20 23:07 | 43.34443 | 22.28940 | 5947 ft | 344 kts | 182° |
| 2026-04-20 23:07 | 43.32212 | 22.28271 | 5515 ft | 315 kts | 204° |
| 2026-04-20 23:07 | 43.30313 | 22.27184 | 5631 ft | 278 kts | 206° |
| 2026-04-20 23:08 | 43.28633 | 22.26186 | 5738 ft | 249 kts | 206° |
| 2026-04-20 23:08 | 43.27153 | 22.25070 | 5805 ft | 253 kts | 221° |
| 2026-04-20 23:08 | 43.25966 | 22.23282 | 5671 ft | 255 kts | 241° |
| 2026-04-20 23:08 | 43.25316 | 22.21005 | 5554 ft | 254 kts | 261° |
| 2026-04-20 23:09 | 43.25293 | 22.18676 | 5418 ft | 243 kts | 280° |
| 2026-04-20 23:09 | 43.25768 | 22.16499 | 5299 ft | 234 kts | 289° |
| 2026-04-20 23:09 | 43.26313 | 22.14388 | 4843 ft | 241 kts | 289° |
| 2026-04-20 23:09 | 43.26870 | 22.12194 | 4441 ft | 243 kts | 289° |
| 2026-04-20 23:10 | 43.27238 | 22.10728 | 4335 ft | 239 kts | 290° |
| 2026-04-20 23:10 | 43.27769 | 22.08608 | 4210 ft | 231 kts | 290° |
| 2026-04-20 23:10 | 43.28280 | 22.06567 | 4085 ft | 223 kts | 290° |
| 2026-04-20 23:10 | 43.28783 | 22.04559 | 3808 ft | 221 kts | 291° |
| 2026-04-20 23:11 | 43.29282 | 22.02563 | 3484 ft | 222 kts | 291° |
| 2026-04-20 23:11 | 43.29787 | 22.00545 | 3145 ft | 224 kts | 291° |
| 2026-04-20 23:11 | 43.30294 | 21.98515 | 2805 ft | 226 kts | 291° |
| 2026-04-20 23:11 | 43.30797 | 21.96495 | 2452 ft | 219 kts | 291° |
| 2026-04-20 23:12 | 43.31277 | 21.94565 | 2099 ft | 206 kts | 292° |
| 2026-04-20 23:12 | 43.31713 | 21.92753 | 1826 ft | 187 kts | 288° |
| 2026-04-20 23:12 | 43.31987 | 21.91149 | 1724 ft | 156 kts | 286° |
| 2026-04-20 23:12 | 43.32249 | 21.89782 | 1474 ft | 144 kts | 296° |
| 2026-04-20 23:13 | 43.32676 | 21.88579 | 1100 ft | 137 kts | 298° |
| 2026-04-20 23:13 | 43.33078 | 21.87386 | 827 ft | 138 kts | 298° |
| 2026-04-20 23:13 | 43.33461 | 21.86200 | 670 ft | 129 kts | 297° |
| 2026-04-20 23:13 | 43.33780 | 21.85216 | 657 ft | 93 kts | 295° |
| 2026-04-20 23:14 | 43.33916 | 21.84781 | 660 ft | 19 kts | 294° |
| 2026-04-20 23:14 | 43.33959 | 21.84678 | 659 ft | 12 kts | 322° |
| 2026-04-20 23:14 | 43.33949 | 21.84669 | 659 ft | 8 kts | 126° |
| 2026-04-20 23:14 | 43.33908 | 21.84810 | 659 ft | 23 kts | 108° |
| 2026-04-20 23:15 | 43.33834 | 21.85021 | 659 ft | 26 kts | 121° |
| 2026-04-20 23:15 | 43.33756 | 21.85265 | 658 ft | 29 kts | 112° |
| 2026-04-20 23:15 | 43.33678 | 21.85527 | 661 ft | 30 kts | 112° |
| 2026-04-20 23:15 | 43.33600 | 21.85781 | 658 ft | 24 kts | 114° |
| 2026-04-20 23:16 | 43.33533 | 21.85994 | 658 ft | 25 kts | 113° |
| 2026-04-20 23:16 | 43.33463 | 21.86214 | 657 ft | 25 kts | 114° |
| 2026-04-20 23:16 | 43.33397 | 21.86419 | 656 ft | 24 kts | 113° |
| 2026-04-20 23:16 | 43.33354 | 21.86603 | 651 ft | 20 kts | 76° |
| 2026-04-20 23:17 | 43.33419 | 21.86667 | 653 ft | 9 kts | 19° |
| 2026-04-20 23:17 | 43.33481 | 21.86695 | 651 ft | 10 kts | 18° |
| 2026-04-20 23:17 | 43.33546 | 21.86705 | 655 ft | 9 kts | 354° |
| 2026-04-20 23:17 | 43.33615 | 21.86667 | 653 ft | 13 kts | 338° |
| 2026-04-20 23:18 | 43.33636 | 21.86638 | 653 ft | 0 kts | 306° |
| 2026-04-20 23:19 | 43.33637 | 21.86634 | 653 ft | 1 kts | 295° |
| 2026-04-20 23:19 | 43.33645 | 21.86617 | 653 ft | 2 kts | 330° |
| 2026-04-20 23:20 | 43.33670 | 21.86627 | 653 ft | 5 kts | 36° |
| 2026-04-20 23:20 | 43.33676 | 21.86641 | 653 ft | 0 kts | 64° |